sensor_id;sensor_type;location;lat;lon;timestamp;pressure;altitude;pressure_sealevel;temperature;humidity
4326;BME280;58429;49.826;10.880;2022-12-18T00:00:21;99995;;;-10.49;69.3
4326;BME280;58429;49.826;10.880;2022-12-18T00:01:22;99995;;;-10.55;69.32
4326;BME280;58429;49.826;10.880;2022-12-18T00:02:21;99998;;;-10.49;69.35
4326;BME280;58429;49.826;10.880;2022-12-18T00:03:21;99986;;;-10.48;69.27
4326;BME280;58429;49.826;10.880;2022-12-18T00:04:22;99989;;;-10.47;69.16
4326;BME280;58429;49.826;10.880;2022-12-18T00:05:21;99985;;;-10.46;68.94
4326;BME280;58429;49.826;10.880;2022-12-18T00:06:21;99986;;;-10.44;68.77
4326;BME280;58429;49.826;10.880;2022-12-18T00:07:21;99987;;;-10.46;68.64
4326;BME280;58429;49.826;10.880;2022-12-18T00:08:21;99982;;;-10.52;68.44
4326;BME280;58429;49.826;10.880;2022-12-18T00:09:21;99984;;;-10.44;68.38
4326;BME280;58429;49.826;10.880;2022-12-18T00:10:21;99982;;;-10.48;68.37
4326;BME280;58429;49.826;10.880;2022-12-18T00:11:22;99978;;;-10.46;68.47
4326;BME280;58429;49.826;10.880;2022-12-18T00:12:21;99977;;;-10.43;68.65
4326;BME280;58429;49.826;10.880;2022-12-18T00:13:21;99982;;;-10.42;68.74
4326;BME280;58429;49.826;10.880;2022-12-18T00:14:21;99980;;;-10.43;68.72
4326;BME280;58429;49.826;10.880;2022-12-18T00:15:21;99982;;;-10.44;68.66
4326;BME280;58429;49.826;10.880;2022-12-18T00:16:21;99980;;;-10.44;68.68
4326;BME280;58429;49.826;10.880;2022-12-18T00:17:21;99987;;;-10.43;68.71
4326;BME280;58429;49.826;10.880;2022-12-18T00:18:21;99985;;;-10.46;68.72
4326;BME280;58429;49.826;10.880;2022-12-18T00:19:21;99979;;;-10.41;68.75
4326;BME280;58429;49.826;10.880;2022-12-18T00:20:21;99988;;;-10.41;68.76
4326;BME280;58429;49.826;10.880;2022-12-18T00:21:21;99981;;;-10.42;68.78
4326;BME280;58429;49.826;10.880;2022-12-18T00:22:21;99987;;;-10.43;68.82
4326;BME280;58429;49.826;10.880;2022-12-18T00:23:21;99993;;;-10.43;68.8
4326;BME280;58429;49.826;10.880;2022-12-18T00:24:21;99992;;;-10.43;68.74
4326;BME280;58429;49.826;10.880;2022-12-18T00:25:21;99984;;;-10.42;68.7
4326;BME280;58429;49.826;10.880;2022-12-18T00:26:22;99989;;;-10.41;68.67
4326;BME280;58429;49.826;10.880;2022-12-18T00:27:21;99989;;;-10.4;68.59
4326;BME280;58429;49.826;10.880;2022-12-18T00:28:21;99992;;;-10.41;68.58
4326;BME280;58429;49.826;10.880;2022-12-18T00:29:21;99988;;;-10.41;68.55
4326;BME280;58429;49.826;10.880;2022-12-18T00:30:21;99988;;;-10.43;68.49
4326;BME280;58429;49.826;10.880;2022-12-18T00:31:22;99989;;;-10.42;68.58
4326;BME280;58429;49.826;10.880;2022-12-18T00:32:21;99986;;;-10.49;68.94
4326;BME280;58429;49.826;10.880;2022-12-18T00:33:21;99990;;;-10.51;69.29
4326;BME280;58429;49.826;10.880;2022-12-18T00:34:21;99981;;;-10.52;69.28
4326;BME280;58429;49.826;10.880;2022-12-18T00:35:21;99986;;;-10.56;69.33
4326;BME280;58429;49.826;10.880;2022-12-18T00:36:22;99991;;;-10.49;69.29
4326;BME280;58429;49.826;10.880;2022-12-18T00:37:21;99994;;;-10.51;69.24
4326;BME280;58429;49.826;10.880;2022-12-18T00:38:21;99997;;;-10.48;69.15
4326;BME280;58429;49.826;10.880;2022-12-18T00:39:21;99998;;;-10.48;69.1
4326;BME280;58429;49.826;10.880;2022-12-18T00:40:21;99991;;;-10.49;69.09
4326;BME280;58429;49.826;10.880;2022-12-18T00:41:21;99997;;;-10.51;69.04
4326;BME280;58429;49.826;10.880;2022-12-18T00:42:21;99991;;;-10.51;68.96
4326;BME280;58429;49.826;10.880;2022-12-18T00:43:21;99991;;;-10.58;68.7
4326;BME280;58429;49.826;10.880;2022-12-18T00:44:21;99994;;;-10.58;68.55
4326;BME280;58429;49.826;10.880;2022-12-18T00:45:21;99986;;;-10.61;68.43
4326;BME280;58429;49.826;10.880;2022-12-18T00:46:21;99991;;;-10.64;68.33
4326;BME280;58429;49.826;10.880;2022-12-18T00:47:21;99988;;;-10.61;68.28
4326;BME280;58429;49.826;10.880;2022-12-18T00:48:21;99986;;;-10.67;68.21
4326;BME280;58429;49.826;10.880;2022-12-18T00:49:21;99986;;;-10.64;68.19
4326;BME280;58429;49.826;10.880;2022-12-18T00:50:21;99988;;;-10.64;68.22
4326;BME280;58429;49.826;10.880;2022-12-18T00:51:21;99985;;;-10.66;68.19
4326;BME280;58429;49.826;10.880;2022-12-18T00:52:21;99984;;;-10.66;68.25
4326;BME280;58429;49.826;10.880;2022-12-18T00:53:21;99993;;;-10.65;68.27
4326;BME280;58429;49.826;10.880;2022-12-18T00:54:21;99991;;;-10.68;68.35
4326;BME280;58429;49.826;10.880;2022-12-18T00:55:21;99995;;;-10.65;68.41
4326;BME280;58429;49.826;10.880;2022-12-18T00:56:21;99990;;;-10.67;68.48
4326;BME280;58429;49.826;10.880;2022-12-18T00:57:21;99990;;;-10.69;68.56
4326;BME280;58429;49.826;10.880;2022-12-18T00:58:21;99985;;;-10.69;68.53
4326;BME280;58429;49.826;10.880;2022-12-18T00:59:21;99982;;;-10.68;68.53
4326;BME280;58429;49.826;10.880;2022-12-18T01:00:21;99989;;;-10.69;68.49
4326;BME280;58429;49.826;10.880;2022-12-18T01:01:21;99987;;;-10.69;68.49
4326;BME280;58429;49.826;10.880;2022-12-18T01:02:21;99991;;;-10.72;68.51
4326;BME280;58429;49.826;10.880;2022-12-18T01:03:21;99985;;;-10.71;68.5
4326;BME280;58429;49.826;10.880;2022-12-18T01:04:21;99992;;;-10.71;68.47
4326;BME280;58429;49.826;10.880;2022-12-18T01:05:21;99993;;;-10.72;68.42
4326;BME280;58429;49.826;10.880;2022-12-18T01:06:21;100000;;;-10.71;68.35
4326;BME280;58429;49.826;10.880;2022-12-18T01:07:21;99995;;;-10.7;68.34
4326;BME280;58429;49.826;10.880;2022-12-18T01:08:21;99996;;;-10.72;68.38
4326;BME280;58429;49.826;10.880;2022-12-18T01:09:21;100003;;;-10.74;68.45
4326;BME280;58429;49.826;10.880;2022-12-18T01:10:21;99996;;;-10.73;68.45
4326;BME280;58429;49.826;10.880;2022-12-18T01:11:21;99997;;;-10.71;68.56
4326;BME280;58429;49.826;10.880;2022-12-18T01:12:21;99999;;;-10.76;68.59
4326;BME280;58429;49.826;10.880;2022-12-18T01:13:21;100006;;;-10.75;68.65
4326;BME280;58429;49.826;10.880;2022-12-18T01:14:21;99997;;;-10.77;68.79
4326;BME280;58429;49.826;10.880;2022-12-18T01:15:21;100013;;;-10.76;68.92
4326;BME280;58429;49.826;10.880;2022-12-18T01:16:21;100012;;;-10.79;69.13
4326;BME280;58429;49.826;10.880;2022-12-18T01:17:21;100010;;;-10.8;69.32
4326;BME280;58429;49.826;10.880;2022-12-18T01:18:21;100014;;;-10.84;69.41
4326;BME280;58429;49.826;10.880;2022-12-18T01:19:22;100018;;;-10.87;69.45
4326;BME280;58429;49.826;10.880;2022-12-18T01:20:21;100013;;;-10.89;69.55
4326;BME280;58429;49.826;10.880;2022-12-18T01:21:22;100007;;;-10.93;69.7
4326;BME280;58429;49.826;10.880;2022-12-18T01:22:21;100020;;;-10.94;69.78
4326;BME280;58429;49.826;10.880;2022-12-18T01:23:21;100005;;;-10.95;69.76
4326;BME280;58429;49.826;10.880;2022-12-18T01:24:21;100009;;;-10.93;69.85
4326;BME280;58429;49.826;10.880;2022-12-18T01:25:21;100013;;;-10.97;69.97
4326;BME280;58429;49.826;10.880;2022-12-18T01:26:21;100008;;;-10.95;70.18
4326;BME280;58429;49.826;10.880;2022-12-18T01:27:21;100008;;;-10.95;70.34
4326;BME280;58429;49.826;10.880;2022-12-18T01:28:21;100009;;;-10.93;70.33
4326;BME280;58429;49.826;10.880;2022-12-18T01:29:21;100013;;;-10.94;70.32
4326;BME280;58429;49.826;10.880;2022-12-18T01:30:21;100014;;;-10.95;70.45
4326;BME280;58429;49.826;10.880;2022-12-18T01:31:23;100010;;;-10.94;70.5
4326;BME280;58429;49.826;10.880;2022-12-18T01:32:21;100017;;;-10.96;70.5
4326;BME280;58429;49.826;10.880;2022-12-18T01:33:21;100018;;;-10.93;70.5
4326;BME280;58429;49.826;10.880;2022-12-18T01:34:21;100013;;;-11.03;70.71
4326;BME280;58429;49.826;10.880;2022-12-18T01:35:21;100016;;;-11.06;70.82
4326;BME280;58429;49.826;10.880;2022-12-18T01:36:22;100020;;;-11.03;70.93
4326;BME280;58429;49.826;10.880;2022-12-18T01:37:21;100018;;;-11.04;71.03
4326;BME280;58429;49.826;10.880;2022-12-18T01:38:21;100020;;;-11.11;71
4326;BME280;58429;49.826;10.880;2022-12-18T01:39:21;100020;;;-11.07;70.99
4326;BME280;58429;49.826;10.880;2022-12-18T01:40:21;100020;;;-11.1;71.05
4326;BME280;58429;49.826;10.880;2022-12-18T01:41:22;100020;;;-11.09;71.14
4326;BME280;58429;49.826;10.880;2022-12-18T01:42:21;100021;;;-11.11;71
4326;BME280;58429;49.826;10.880;2022-12-18T01:43:21;100020;;;-11.1;70.84
4326;BME280;58429;49.826;10.880;2022-12-18T01:44:56;100023;;;-11.11;70.69
4326;BME280;58429;49.826;10.880;2022-12-18T01:45:22;100025;;;-11.12;70.57
4326;BME280;58429;49.826;10.880;2022-12-18T01:46:21;100035;;;-11.1;70.55
4326;BME280;58429;49.826;10.880;2022-12-18T01:47:21;100029;;;-11.12;70.5
4326;BME280;58429;49.826;10.880;2022-12-18T01:48:21;100028;;;-11.12;70.5
4326;BME280;58429;49.826;10.880;2022-12-18T01:49:21;100027;;;-11.17;70.71
4326;BME280;58429;49.826;10.880;2022-12-18T01:50:22;100026;;;-11.18;70.78
4326;BME280;58429;49.826;10.880;2022-12-18T01:51:21;100024;;;-11.22;70.88
4326;BME280;58429;49.826;10.880;2022-12-18T01:52:21;100024;;;-11.22;71.07
4326;BME280;58429;49.826;10.880;2022-12-18T01:53:21;100027;;;-11.24;71.18
4326;BME280;58429;49.826;10.880;2022-12-18T01:54:21;100030;;;-11.24;71.36
4326;BME280;58429;49.826;10.880;2022-12-18T01:55:22;100030;;;-11.3;71.44
4326;BME280;58429;49.826;10.880;2022-12-18T01:56:21;100026;;;-11.27;71.67
4326;BME280;58429;49.826;10.880;2022-12-18T01:57:21;100028;;;-11.28;71.64
4326;BME280;58429;49.826;10.880;2022-12-18T01:58:22;100026;;;-11.24;71.46
4326;BME280;58429;49.826;10.880;2022-12-18T01:59:21;100027;;;-11.28;71.45
4326;BME280;58429;49.826;10.880;2022-12-18T02:00:21;100022;;;-11.23;71.43
4326;BME280;58429;49.826;10.880;2022-12-18T02:01:21;100030;;;-11.24;71.3
4326;BME280;58429;49.826;10.880;2022-12-18T02:02:21;100026;;;-11.22;71.26
4326;BME280;58429;49.826;10.880;2022-12-18T02:03:21;100027;;;-11.2;71.23
4326;BME280;58429;49.826;10.880;2022-12-18T02:04:21;100030;;;-11.2;71.22
4326;BME280;58429;49.826;10.880;2022-12-18T02:05:23;100033;;;-11.22;71.2
4326;BME280;58429;49.826;10.880;2022-12-18T02:06:22;100029;;;-11.19;71.21
4326;BME280;58429;49.826;10.880;2022-12-18T02:07:23;100029;;;-11.17;71.15
4326;BME280;58429;49.826;10.880;2022-12-18T02:08:21;100030;;;-11.14;71.12
4326;BME280;58429;49.826;10.880;2022-12-18T02:09:22;100028;;;-11.12;71.03
4326;BME280;58429;49.826;10.880;2022-12-18T02:10:23;100028;;;-11.11;70.99
4326;BME280;58429;49.826;10.880;2022-12-18T02:11:23;100028;;;-11.15;71
4326;BME280;58429;49.826;10.880;2022-12-18T02:12:21;100032;;;-11.12;71.08
4326;BME280;58429;49.826;10.880;2022-12-18T02:13:23;100028;;;-11.14;71.17
4326;BME280;58429;49.826;10.880;2022-12-18T02:14:22;100032;;;-11.22;71.25
4326;BME280;58429;49.826;10.880;2022-12-18T02:15:23;100035;;;-11.24;71.13
4326;BME280;58429;49.826;10.880;2022-12-18T02:16:21;100031;;;-11.22;71.07
4326;BME280;58429;49.826;10.880;2022-12-18T02:17:22;100024;;;-11.21;71
4326;BME280;58429;49.826;10.880;2022-12-18T02:18:22;100024;;;-11.23;70.92
4326;BME280;58429;49.826;10.880;2022-12-18T02:19:27;100021;;;-11.23;70.86
4326;BME280;58429;49.826;10.880;2022-12-18T02:20:21;100022;;;-11.19;70.84
4326;BME280;58429;49.826;10.880;2022-12-18T02:21:23;100026;;;-11.24;70.74
4326;BME280;58429;49.826;10.880;2022-12-18T02:22:25;100019;;;-11.28;70.7
4326;BME280;58429;49.826;10.880;2022-12-18T02:23:24;100012;;;-11.24;70.72
4326;BME280;58429;49.826;10.880;2022-12-18T02:24:24;100027;;;-11.24;70.77
4326;BME280;58429;49.826;10.880;2022-12-18T02:25:25;100020;;;-11.24;70.82
4326;BME280;58429;49.826;10.880;2022-12-18T02:26:21;100017;;;-11.22;70.85
4326;BME280;58429;49.826;10.880;2022-12-18T02:27:21;100026;;;-11.22;70.85
4326;BME280;58429;49.826;10.880;2022-12-18T02:28:22;100020;;;-11.22;70.85
4326;BME280;58429;49.826;10.880;2022-12-18T02:29:21;100025;;;-11.23;70.87
4326;BME280;58429;49.826;10.880;2022-12-18T02:30:21;100024;;;-11.23;70.88
4326;BME280;58429;49.826;10.880;2022-12-18T02:31:21;100024;;;-11.24;70.91
4326;BME280;58429;49.826;10.880;2022-12-18T02:32:22;100026;;;-11.22;70.9
4326;BME280;58429;49.826;10.880;2022-12-18T02:33:21;100029;;;-11.25;70.89
4326;BME280;58429;49.826;10.880;2022-12-18T02:34:22;100016;;;-11.24;70.93
4326;BME280;58429;49.826;10.880;2022-12-18T02:35:22;100022;;;-11.3;71.1
4326;BME280;58429;49.826;10.880;2022-12-18T02:36:21;100023;;;-11.31;71.17
4326;BME280;58429;49.826;10.880;2022-12-18T02:37:21;100018;;;-11.34;71.14
4326;BME280;58429;49.826;10.880;2022-12-18T02:38:21;100031;;;-11.34;71.13
4326;BME280;58429;49.826;10.880;2022-12-18T02:39:21;100023;;;-11.33;71.17
4326;BME280;58429;49.826;10.880;2022-12-18T02:40:22;100027;;;-11.35;71.22
4326;BME280;58429;49.826;10.880;2022-12-18T02:41:23;100027;;;-11.35;71.27
4326;BME280;58429;49.826;10.880;2022-12-18T02:42:21;100033;;;-11.38;71.32
4326;BME280;58429;49.826;10.880;2022-12-18T02:43:21;100033;;;-11.33;71.32
4326;BME280;58429;49.826;10.880;2022-12-18T02:44:21;100026;;;-11.33;71.29
4326;BME280;58429;49.826;10.880;2022-12-18T02:45:21;100028;;;-11.29;71.27
4326;BME280;58429;49.826;10.880;2022-12-18T02:46:29;100031;;;-11.26;71.18
4326;BME280;58429;49.826;10.880;2022-12-18T02:47:22;100033;;;-11.25;71.1
4326;BME280;58429;49.826;10.880;2022-12-18T02:48:22;100032;;;-11.25;70.97
4326;BME280;58429;49.826;10.880;2022-12-18T02:49:24;100033;;;-11.23;70.91
4326;BME280;58429;49.826;10.880;2022-12-18T02:50:22;100037;;;-11.21;70.89
4326;BME280;58429;49.826;10.880;2022-12-18T02:51:23;100035;;;-11.24;70.86
4326;BME280;58429;49.826;10.880;2022-12-18T02:52:24;100035;;;-11.23;70.84
4326;BME280;58429;49.826;10.880;2022-12-18T02:53:22;100031;;;-11.23;70.95
4326;BME280;58429;49.826;10.880;2022-12-18T02:54:23;100025;;;-11.28;70.95
4326;BME280;58429;49.826;10.880;2022-12-18T02:55:24;100029;;;-11.26;70.97
4326;BME280;58429;49.826;10.880;2022-12-18T02:56:22;100018;;;-11.27;71.04
4326;BME280;58429;49.826;10.880;2022-12-18T02:57:23;100012;;;-11.26;71.03
4326;BME280;58429;49.826;10.880;2022-12-18T02:58:25;100008;;;-11.28;71.1
4326;BME280;58429;49.826;10.880;2022-12-18T02:59:21;100007;;;-11.26;71.23
4326;BME280;58429;49.826;10.880;2022-12-18T03:00:21;100013;;;-11.24;71.21
4326;BME280;58429;49.826;10.880;2022-12-18T03:01:21;100007;;;-11.25;71.19
4326;BME280;58429;49.826;10.880;2022-12-18T03:02:22;100006;;;-11.25;71.14
4326;BME280;58429;49.826;10.880;2022-12-18T03:03:23;100008;;;-11.23;71.08
4326;BME280;58429;49.826;10.880;2022-12-18T03:04:23;100013;;;-11.26;70.97
4326;BME280;58429;49.826;10.880;2022-12-18T03:05:22;100017;;;-11.25;70.88
4326;BME280;58429;49.826;10.880;2022-12-18T03:06:23;100019;;;-11.24;70.76
4326;BME280;58429;49.826;10.880;2022-12-18T03:07:23;100018;;;-11.23;70.7
4326;BME280;58429;49.826;10.880;2022-12-18T03:08:21;100017;;;-11.22;70.61
4326;BME280;58429;49.826;10.880;2022-12-18T03:09:21;100019;;;-11.22;70.51
4326;BME280;58429;49.826;10.880;2022-12-18T03:10:24;100015;;;-11.23;70.42
4326;BME280;58429;49.826;10.880;2022-12-18T03:11:21;100022;;;-11.26;70.37
4326;BME280;58429;49.826;10.880;2022-12-18T03:12:22;100030;;;-11.28;70.33
4326;BME280;58429;49.826;10.880;2022-12-18T03:13:23;100027;;;-11.29;70.31
4326;BME280;58429;49.826;10.880;2022-12-18T03:14:21;100034;;;-11.28;70.26
4326;BME280;58429;49.826;10.880;2022-12-18T03:15:22;100036;;;-11.3;70.26
4326;BME280;58429;49.826;10.880;2022-12-18T03:16:22;100038;;;-11.33;70.28
4326;BME280;58429;49.826;10.880;2022-12-18T03:17:22;100040;;;-11.33;70.28
4326;BME280;58429;49.826;10.880;2022-12-18T03:18:23;100038;;;-11.33;70.32
4326;BME280;58429;49.826;10.880;2022-12-18T03:19:21;100045;;;-11.36;70.43
4326;BME280;58429;49.826;10.880;2022-12-18T03:20:21;100039;;;-11.34;70.55
4326;BME280;58429;49.826;10.880;2022-12-18T03:21:23;100039;;;-11.35;70.62
4326;BME280;58429;49.826;10.880;2022-12-18T03:22:21;100044;;;-11.36;70.65
4326;BME280;58429;49.826;10.880;2022-12-18T03:23:22;100039;;;-11.35;70.63
4326;BME280;58429;49.826;10.880;2022-12-18T03:24:21;100043;;;-11.3;70.62
4326;BME280;58429;49.826;10.880;2022-12-18T03:25:21;100040;;;-11.33;70.55
4326;BME280;58429;49.826;10.880;2022-12-18T03:26:22;100036;;;-11.32;70.44
4326;BME280;58429;49.826;10.880;2022-12-18T03:27:21;100043;;;-11.33;70.45
4326;BME280;58429;49.826;10.880;2022-12-18T03:28:21;100046;;;-11.36;70.46
4326;BME280;58429;49.826;10.880;2022-12-18T03:29:22;100046;;;-11.35;70.52
4326;BME280;58429;49.826;10.880;2022-12-18T03:30:21;100050;;;-11.36;70.45
4326;BME280;58429;49.826;10.880;2022-12-18T03:31:21;100053;;;-11.36;70.42
4326;BME280;58429;49.826;10.880;2022-12-18T03:32:23;100054;;;-11.37;70.42
4326;BME280;58429;49.826;10.880;2022-12-18T03:33:23;100058;;;-11.38;70.43
4326;BME280;58429;49.826;10.880;2022-12-18T03:34:21;100064;;;-11.38;70.48
4326;BME280;58429;49.826;10.880;2022-12-18T03:35:29;100059;;;-11.35;70.55
4326;BME280;58429;49.826;10.880;2022-12-18T03:36:21;100065;;;-11.36;70.73
4326;BME280;58429;49.826;10.880;2022-12-18T03:37:21;100061;;;-11.35;70.88
4326;BME280;58429;49.826;10.880;2022-12-18T03:38:21;100064;;;-11.34;70.88
4326;BME280;58429;49.826;10.880;2022-12-18T03:39:21;100064;;;-11.34;70.88
4326;BME280;58429;49.826;10.880;2022-12-18T03:40:21;100061;;;-11.34;70.96
4326;BME280;58429;49.826;10.880;2022-12-18T03:41:23;100061;;;-11.35;70.98
4326;BME280;58429;49.826;10.880;2022-12-18T03:42:22;100059;;;-11.33;71.08
4326;BME280;58429;49.826;10.880;2022-12-18T03:43:24;100066;;;-11.31;71.24
4326;BME280;58429;49.826;10.880;2022-12-18T03:44:23;100064;;;-11.28;71.57
4326;BME280;58429;49.826;10.880;2022-12-18T03:45:23;100060;;;-11.27;71.63
4326;BME280;58429;49.826;10.880;2022-12-18T03:46:24;100059;;;-11.24;71.77
4326;BME280;58429;49.826;10.880;2022-12-18T03:47:23;100061;;;-11.26;71.88
4326;BME280;58429;49.826;10.880;2022-12-18T03:48:23;100056;;;-11.22;71.92
4326;BME280;58429;49.826;10.880;2022-12-18T03:49:23;100060;;;-11.19;71.92
4326;BME280;58429;49.826;10.880;2022-12-18T03:50:22;100060;;;-11.18;71.87
4326;BME280;58429;49.826;10.880;2022-12-18T03:51:23;100054;;;-11.2;71.82
4326;BME280;58429;49.826;10.880;2022-12-18T03:52:26;100060;;;-11.16;71.85
4326;BME280;58429;49.826;10.880;2022-12-18T03:53:24;100063;;;-11.18;71.78
4326;BME280;58429;49.826;10.880;2022-12-18T03:54:21;100051;;;-11.18;71.78
4326;BME280;58429;49.826;10.880;2022-12-18T03:55:21;100054;;;-11.16;71.73
4326;BME280;58429;49.826;10.880;2022-12-18T03:56:21;100053;;;-11.19;71.63
4326;BME280;58429;49.826;10.880;2022-12-18T03:57:22;100049;;;-11.18;71.6
4326;BME280;58429;49.826;10.880;2022-12-18T03:58:23;100052;;;-11.19;71.54
4326;BME280;58429;49.826;10.880;2022-12-18T03:59:21;100054;;;-11.18;71.49
4326;BME280;58429;49.826;10.880;2022-12-18T04:00:21;100061;;;-11.23;71.51
4326;BME280;58429;49.826;10.880;2022-12-18T04:01:22;100059;;;-11.26;71.63
4326;BME280;58429;49.826;10.880;2022-12-18T04:02:21;100067;;;-11.33;71.72
4326;BME280;58429;49.826;10.880;2022-12-18T04:03:21;100067;;;-11.35;71.99
4326;BME280;58429;49.826;10.880;2022-12-18T04:04:21;100063;;;-11.39;72.13
4326;BME280;58429;49.826;10.880;2022-12-18T04:05:21;100066;;;-11.38;72.17
4326;BME280;58429;49.826;10.880;2022-12-18T04:06:21;100068;;;-11.39;72.12
4326;BME280;58429;49.826;10.880;2022-12-18T04:07:21;100073;;;-11.35;72.07
4326;BME280;58429;49.826;10.880;2022-12-18T04:08:21;100083;;;-11.38;72.14
4326;BME280;58429;49.826;10.880;2022-12-18T04:09:21;100083;;;-11.41;72.25
4326;BME280;58429;49.826;10.880;2022-12-18T04:10:21;100089;;;-11.4;72.3
4326;BME280;58429;49.826;10.880;2022-12-18T04:11:21;100085;;;-11.37;72.37
4326;BME280;58429;49.826;10.880;2022-12-18T04:12:23;100086;;;-11.4;72.47
4326;BME280;58429;49.826;10.880;2022-12-18T04:13:21;100090;;;-11.42;72.52
4326;BME280;58429;49.826;10.880;2022-12-18T04:14:21;100087;;;-11.4;72.51
4326;BME280;58429;49.826;10.880;2022-12-18T04:15:21;100082;;;-11.39;72.34
4326;BME280;58429;49.826;10.880;2022-12-18T04:16:21;100088;;;-11.4;72.29
4326;BME280;58429;49.826;10.880;2022-12-18T04:17:21;100088;;;-11.39;72.38
4326;BME280;58429;49.826;10.880;2022-12-18T04:18:21;100088;;;-11.39;72.52
4326;BME280;58429;49.826;10.880;2022-12-18T04:19:21;100088;;;-11.4;72.67
4326;BME280;58429;49.826;10.880;2022-12-18T04:20:21;100089;;;-11.36;72.69
4326;BME280;58429;49.826;10.880;2022-12-18T04:21:21;100091;;;-11.39;72.68
4326;BME280;58429;49.826;10.880;2022-12-18T04:22:21;100102;;;-11.38;72.78
4326;BME280;58429;49.826;10.880;2022-12-18T04:23:21;100092;;;-11.34;73.67
4326;BME280;58429;49.826;10.880;2022-12-18T04:24:21;100095;;;-11.35;74
4326;BME280;58429;49.826;10.880;2022-12-18T04:25:21;100093;;;-11.28;74.21
4326;BME280;58429;49.826;10.880;2022-12-18T04:26:21;100099;;;-11.24;74.73
4326;BME280;58429;49.826;10.880;2022-12-18T04:27:21;100094;;;-11.25;75.05
4326;BME280;58429;49.826;10.880;2022-12-18T04:28:21;100097;;;-11.25;75.26
4326;BME280;58429;49.826;10.880;2022-12-18T04:29:21;100092;;;-11.24;74.91
4326;BME280;58429;49.826;10.880;2022-12-18T04:30:21;100092;;;-11.26;74.75
4326;BME280;58429;49.826;10.880;2022-12-18T04:31:21;100091;;;-11.31;74.66
4326;BME280;58429;49.826;10.880;2022-12-18T04:32:21;100091;;;-11.3;74.78
4326;BME280;58429;49.826;10.880;2022-12-18T04:33:21;100090;;;-11.31;74.86
4326;BME280;58429;49.826;10.880;2022-12-18T04:34:21;100091;;;-11.34;75.05
4326;BME280;58429;49.826;10.880;2022-12-18T04:35:21;100095;;;-11.34;74.96
4326;BME280;58429;49.826;10.880;2022-12-18T04:36:21;100085;;;-11.37;74.92
4326;BME280;58429;49.826;10.880;2022-12-18T04:37:21;100088;;;-11.38;75.02
4326;BME280;58429;49.826;10.880;2022-12-18T04:38:21;100088;;;-11.4;75.36
4326;BME280;58429;49.826;10.880;2022-12-18T04:39:21;100091;;;-11.42;75.37
4326;BME280;58429;49.826;10.880;2022-12-18T04:40:21;100092;;;-11.45;75.32
4326;BME280;58429;49.826;10.880;2022-12-18T04:41:21;100093;;;-11.42;75.25
4326;BME280;58429;49.826;10.880;2022-12-18T04:42:21;100094;;;-11.43;74.95
4326;BME280;58429;49.826;10.880;2022-12-18T04:43:21;100094;;;-11.44;74.83
4326;BME280;58429;49.826;10.880;2022-12-18T04:44:21;100098;;;-11.44;74.83
4326;BME280;58429;49.826;10.880;2022-12-18T04:45:21;100098;;;-11.43;74.77
4326;BME280;58429;49.826;10.880;2022-12-18T04:46:21;100098;;;-11.39;74.95
4326;BME280;58429;49.826;10.880;2022-12-18T04:47:21;100089;;;-11.42;74.84
4326;BME280;58429;49.826;10.880;2022-12-18T04:48:21;100091;;;-11.41;74.84
4326;BME280;58429;49.826;10.880;2022-12-18T04:49:21;100087;;;-11.33;74.83
4326;BME280;58429;49.826;10.880;2022-12-18T04:50:22;100081;;;-11.38;74.65
4326;BME280;58429;49.826;10.880;2022-12-18T04:51:21;100075;;;-11.34;74.52
4326;BME280;58429;49.826;10.880;2022-12-18T04:52:21;100073;;;-11.35;74.4
4326;BME280;58429;49.826;10.880;2022-12-18T04:53:21;100080;;;-11.35;74.29
4326;BME280;58429;49.826;10.880;2022-12-18T04:54:21;100085;;;-11.33;74.21
4326;BME280;58429;49.826;10.880;2022-12-18T04:55:21;100085;;;-11.29;74.05
4326;BME280;58429;49.826;10.880;2022-12-18T04:56:21;100092;;;-11.36;73.84
4326;BME280;58429;49.826;10.880;2022-12-18T04:57:21;100091;;;-11.37;73.66
4326;BME280;58429;49.826;10.880;2022-12-18T04:58:21;100093;;;-11.36;74.05
4326;BME280;58429;49.826;10.880;2022-12-18T04:59:21;100095;;;-11.37;74.51
4326;BME280;58429;49.826;10.880;2022-12-18T05:00:21;100102;;;-11.38;74.71
4326;BME280;58429;49.826;10.880;2022-12-18T05:01:21;100102;;;-11.36;74.61
4326;BME280;58429;49.826;10.880;2022-12-18T05:02:21;100099;;;-11.34;74.45
4326;BME280;58429;49.826;10.880;2022-12-18T05:03:21;100100;;;-11.36;74.22
4326;BME280;58429;49.826;10.880;2022-12-18T05:04:21;100101;;;-11.38;74.04
4326;BME280;58429;49.826;10.880;2022-12-18T05:05:21;100098;;;-11.37;73.87
4326;BME280;58429;49.826;10.880;2022-12-18T05:06:21;100101;;;-11.37;73.72
4326;BME280;58429;49.826;10.880;2022-12-18T05:07:21;100101;;;-11.39;73.53
4326;BME280;58429;49.826;10.880;2022-12-18T05:08:21;100093;;;-11.38;73.45
4326;BME280;58429;49.826;10.880;2022-12-18T05:09:21;100104;;;-11.37;73.44
4326;BME280;58429;49.826;10.880;2022-12-18T05:10:21;100094;;;-11.39;73.44
4326;BME280;58429;49.826;10.880;2022-12-18T05:11:21;100095;;;-11.38;73.42
4326;BME280;58429;49.826;10.880;2022-12-18T05:12:21;100091;;;-11.38;73.41
4326;BME280;58429;49.826;10.880;2022-12-18T05:13:21;100092;;;-11.39;73.38
4326;BME280;58429;49.826;10.880;2022-12-18T05:14:21;100095;;;-11.38;73.26
4326;BME280;58429;49.826;10.880;2022-12-18T05:15:21;100103;;;-11.36;73.16
4326;BME280;58429;49.826;10.880;2022-12-18T05:16:21;100108;;;-11.38;73.06
4326;BME280;58429;49.826;10.880;2022-12-18T05:17:21;100103;;;-11.38;73
4326;BME280;58429;49.826;10.880;2022-12-18T05:18:21;100112;;;-11.38;72.95
4326;BME280;58429;49.826;10.880;2022-12-18T05:19:21;100106;;;-11.36;72.92
4326;BME280;58429;49.826;10.880;2022-12-18T05:20:21;100108;;;-11.36;72.89
4326;BME280;58429;49.826;10.880;2022-12-18T05:21:21;100112;;;-11.38;72.8
4326;BME280;58429;49.826;10.880;2022-12-18T05:22:21;100107;;;-11.37;72.74
4326;BME280;58429;49.826;10.880;2022-12-18T05:23:21;100112;;;-11.39;72.67